createdAt,value
2023-03-14T00:00:56.180Z,75.40
2023-03-14T00:03:23.877Z,75.24
2023-03-14T00:05:51.570Z,75.49
2023-03-14T00:08:20.544Z,75.18
2023-03-14T00:10:48.236Z,74.47
2023-03-14T00:13:15.861Z,74.51
2023-03-14T00:15:45.030Z,74.38
2023-03-14T00:18:12.673Z,74.38
2023-03-14T00:20:40.346Z,74.60
2023-03-14T00:23:08.067Z,74.76
2023-03-14T00:25:36.802Z,75.00
2023-03-14T00:28:04.807Z,74.89
2023-03-14T00:30:32.459Z,74.53
2023-03-14T00:33:01.482Z,74.42
2023-03-14T00:35:29.144Z,74.07
2023-03-14T00:37:56.833Z,75.44
2023-03-14T00:40:24.560Z,77.61
2023-03-14T00:42:52.250Z,78.67
2023-03-14T00:45:19.918Z,79.87
2023-03-14T00:47:47.618Z,81.07
2023-03-14T00:50:16.981Z,81.66
2023-03-14T00:52:44.731Z,82.18
2023-03-14T00:55:12.444Z,82.25
2023-03-14T00:57:40.158Z,82.72
2023-03-14T01:00:12.415Z,82.63
2023-03-14T01:02:40.321Z,82.55
2023-03-14T01:05:11.218Z,82.21
2023-03-14T01:07:40.311Z,82.28
2023-03-14T01:10:09.618Z,82.44
2023-03-14T01:12:37.392Z,81.90
2023-03-14T01:15:05.831Z,82.04
2023-03-14T01:17:33.796Z,81.74
2023-03-14T01:20:01.946Z,81.29
2023-03-14T01:22:29.719Z,81.01
2023-03-14T01:24:58.799Z,80.69
2023-03-14T01:27:26.492Z,80.26
2023-03-14T01:29:54.227Z,80.22
2023-03-14T01:32:22.447Z,80.20
2023-03-14T01:34:50.148Z,80.00
2023-03-14T01:37:17.816Z,79.92
2023-03-14T01:39:45.552Z,79.79
2023-03-14T01:42:14.605Z,79.82
2023-03-14T01:44:50.649Z,79.43
2023-03-14T01:47:18.536Z,79.67
2023-03-14T01:49:48.769Z,79.61
2023-03-14T01:52:21.121Z,79.59
2023-03-14T01:54:53.453Z,79.74
2023-03-14T01:57:27.607Z,80.05
2023-03-14T02:00:00.304Z,80.39
2023-03-14T02:02:29.603Z,80.42
2023-03-14T02:04:58.811Z,80.32
2023-03-14T02:07:31.678Z,80.06
2023-03-14T02:10:00.867Z,80.04
2023-03-14T02:12:30.180Z,80.31
2023-03-14T02:14:57.858Z,80.45
2023-03-14T02:17:26.472Z,80.31
2023-03-14T02:20:12.890Z,80.21
2023-03-14T02:22:43.981Z,79.58
2023-03-14T02:25:16.560Z,79.49
2023-03-14T02:27:46.150Z,79.88
2023-03-14T02:30:17.198Z,80.12
2023-03-14T02:32:48.684Z,79.85
2023-03-14T02:35:20.656Z,79.96
2023-03-14T02:37:51.080Z,79.83
2023-03-14T02:40:19.013Z,80.18
2023-03-14T02:42:48.146Z,80.19
2023-03-14T02:45:43.399Z,80.78
2023-03-14T02:48:16.312Z,80.47
2023-03-14T02:50:45.431Z,80.63
2023-03-14T02:53:16.087Z,80.73
2023-03-14T02:55:48.226Z,81.42
2023-03-14T02:58:17.660Z,81.13
2023-03-14T03:00:45.934Z,81.28
2023-03-14T03:03:14.037Z,81.12
2023-03-14T03:05:41.771Z,81.15
2023-03-14T03:08:10.463Z,81.40
2023-03-14T03:10:38.684Z,81.20
2023-03-14T03:13:06.396Z,81.20
2023-03-14T03:15:35.563Z,80.96
2023-03-14T03:18:03.262Z,80.96
2023-03-14T03:20:31.063Z,81.00
2023-03-14T03:22:58.749Z,80.83
2023-03-14T03:25:26.472Z,80.72
2023-03-14T03:27:54.741Z,80.83
2023-03-14T03:30:22.964Z,80.70
2023-03-14T03:32:52.099Z,80.69
2023-03-14T03:35:19.985Z,80.48
2023-03-14T03:37:47.656Z,80.17
2023-03-14T03:40:15.451Z,80.43
2023-03-14T03:42:43.148Z,80.08
2023-03-14T03:45:11.756Z,80.41
2023-03-14T03:47:39.410Z,80.25
2023-03-14T03:50:09.982Z,80.12
2023-03-14T03:52:37.654Z,80.23
2023-03-14T03:55:06.007Z,80.24
2023-03-14T03:57:33.718Z,80.68
2023-03-14T04:00:01.363Z,80.25
2023-03-14T04:02:29.046Z,80.73
2023-03-14T04:04:57.017Z,80.94
2023-03-14T04:07:26.309Z,81.55
2023-03-14T04:09:54.919Z,81.16
2023-03-14T04:12:22.626Z,81.52
2023-03-14T04:14:50.301Z,81.32
2023-03-14T04:17:17.975Z,81.43
2023-03-14T04:19:45.584Z,81.47
2023-03-14T04:22:13.241Z,81.46
2023-03-14T04:24:42.249Z,82.00
2023-03-14T04:27:09.949Z,81.77
2023-03-14T04:29:37.558Z,81.55
2023-03-14T04:32:05.546Z,81.77
2023-03-14T04:34:33.287Z,81.82
2023-03-14T04:37:01.054Z,81.40
2023-03-14T04:39:28.776Z,81.40
2023-03-14T04:41:57.739Z,81.57
2023-03-14T04:44:25.459Z,81.69
2023-03-14T04:46:53.195Z,82.49
2023-03-14T04:49:20.925Z,83.47
2023-03-14T04:51:48.607Z,84.39
2023-03-14T04:54:16.268Z,84.13
2023-03-14T04:56:43.921Z,84.40
2023-03-14T04:59:12.918Z,84.84
2023-03-14T05:01:42.111Z,84.79
2023-03-14T05:04:09.883Z,85.39
2023-03-14T05:06:37.557Z,85.57
2023-03-14T05:09:06.199Z,85.72
2023-03-14T05:11:34.583Z,86.43
2023-03-14T05:14:02.214Z,86.39
2023-03-14T05:16:31.276Z,87.17
2023-03-14T05:18:58.988Z,87.46
2023-03-14T05:21:26.600Z,87.34
2023-03-14T05:23:54.270Z,87.63
2023-03-14T05:26:21.902Z,87.86
2023-03-14T05:28:49.546Z,88.80
2023-03-14T05:31:17.211Z,88.60
2023-03-14T05:33:46.253Z,89.31
2023-03-14T05:36:14.178Z,89.95
2023-03-14T05:38:41.836Z,90.01
2023-03-14T05:41:09.729Z,89.69
2023-03-14T05:43:38.156Z,89.98
2023-03-14T05:46:06.208Z,90.42
2023-03-14T05:48:33.866Z,90.50
2023-03-14T05:51:03.068Z,90.79
2023-03-14T05:53:31.246Z,90.86
2023-03-14T05:55:59.460Z,91.37
2023-03-14T05:58:27.234Z,91.53
2023-03-14T06:00:54.841Z,91.44
2023-03-14T06:03:22.644Z,91.53
2023-03-14T06:05:52.543Z,91.75
2023-03-14T06:08:21.667Z,92.42
2023-03-14T06:10:49.427Z,92.25
2023-03-14T06:13:17.337Z,92.85
2023-03-14T06:15:45.446Z,92.99
2023-03-14T06:18:13.275Z,92.97
2023-03-14T06:20:41.369Z,93.28
2023-03-14T06:23:09.517Z,93.39
2023-03-14T06:25:39.411Z,93.51
2023-03-14T06:28:07.117Z,93.56
2023-03-14T06:30:34.836Z,93.51
2023-03-14T06:33:02.505Z,93.54
2023-03-14T06:35:30.240Z,93.44
2023-03-14T06:37:57.990Z,93.64
2023-03-14T06:40:25.648Z,93.55
2023-03-14T06:42:54.692Z,93.47
2023-03-14T06:45:22.338Z,93.54
2023-03-14T06:47:50.042Z,93.83
2023-03-14T06:50:17.916Z,93.64
2023-03-14T06:52:48.884Z,94.00
2023-03-14T06:55:17.659Z,94.28
2023-03-14T06:57:45.959Z,94.41
2023-03-14T07:00:16.277Z,94.27
2023-03-14T07:02:43.898Z,94.29
2023-03-14T07:05:12.342Z,94.07
2023-03-14T07:07:40.311Z,93.82
2023-03-14T07:10:09.756Z,94.14
2023-03-14T07:12:37.748Z,93.87
2023-03-14T07:15:17.584Z,94.25
2023-03-14T07:17:55.017Z,94.70
2023-03-14T07:20:22.737Z,94.64
2023-03-14T07:22:50.655Z,94.71
2023-03-14T07:25:19.131Z,94.10
2023-03-14T07:27:47.667Z,94.38
2023-03-14T07:30:16.424Z,94.40
2023-03-14T07:32:44.086Z,94.19
2023-03-14T07:35:13.178Z,93.84
2023-03-14T07:37:40.872Z,94.33
2023-03-14T07:40:11.520Z,93.77
2023-03-14T07:42:39.283Z,93.71
2023-03-14T07:45:08.405Z,93.37
2023-03-14T07:47:36.115Z,93.52
2023-03-14T07:50:04.382Z,93.82
2023-03-14T07:52:33.500Z,93.99
2023-03-14T07:55:01.366Z,94.04
2023-03-14T07:57:29.008Z,93.68
2023-03-14T07:59:56.697Z,94.15
2023-03-14T08:02:25.072Z,94.12
2023-03-14T08:04:52.811Z,93.86
2023-03-14T08:07:20.554Z,94.07
2023-03-14T08:09:49.625Z,93.81
2023-03-14T08:12:17.979Z,93.33
2023-03-14T08:14:45.643Z,93.67
2023-03-14T08:17:13.295Z,92.70
2023-03-14T08:19:42.802Z,92.24
2023-03-14T08:22:10.439Z,91.81
2023-03-14T08:24:38.104Z,91.46
2023-03-14T08:27:08.820Z,91.34
2023-03-14T08:29:38.116Z,91.52
2023-03-14T08:32:06.331Z,91.98
2023-03-14T08:34:35.419Z,91.71
2023-03-14T08:37:06.568Z,91.91
2023-03-14T08:39:38.860Z,92.71
2023-03-14T08:42:07.998Z,93.38
2023-03-14T08:44:35.717Z,93.51
2023-03-14T08:47:03.450Z,93.31
2023-03-14T08:49:31.391Z,93.58
2023-03-14T08:51:59.717Z,93.05
2023-03-14T08:54:27.525Z,92.83
2023-03-14T08:56:55.271Z,92.49
2023-03-14T08:59:24.441Z,92.49
2023-03-14T09:01:52.233Z,92.53
2023-03-14T09:04:20.259Z,90.74
2023-03-14T09:06:47.973Z,88.62
2023-03-14T09:09:15.761Z,87.66
2023-03-14T09:11:43.450Z,86.31
2023-03-14T09:14:11.101Z,87.59
2023-03-14T09:16:40.183Z,86.16
2023-03-14T09:19:07.968Z,87.00
2023-03-14T09:21:35.624Z,87.17
2023-03-14T09:24:03.685Z,86.84
2023-03-14T09:26:31.348Z,87.41
2023-03-14T09:28:59.105Z,87.26
2023-03-14T09:31:26.825Z,87.21
2023-03-14T09:33:55.893Z,86.32
2023-03-14T09:36:23.655Z,86.42
2023-03-14T09:38:51.300Z,86.93
2023-03-14T09:41:23.680Z,87.05
2023-03-14T09:43:54.786Z,87.44
2023-03-14T09:46:23.403Z,88.14
2023-03-14T09:48:51.099Z,87.46
2023-03-14T09:51:24.509Z,88.07
2023-03-14T09:53:52.989Z,89.06
2023-03-14T09:56:22.768Z,88.80
2023-03-14T09:58:54.588Z,89.41
2023-03-14T10:01:26.526Z,90.26
2023-03-14T10:03:57.782Z,89.73
2023-03-14T10:06:30.269Z,89.47
2023-03-14T10:08:58.594Z,88.82
2023-03-14T10:11:26.526Z,89.04
2023-03-14T10:14:07.472Z,89.03
2023-03-14T10:16:37.286Z,88.83
2023-03-14T10:19:07.771Z,89.36
2023-03-14T10:21:41.121Z,88.73
2023-03-14T10:24:20.917Z,87.90
2023-03-14T10:26:52.016Z,86.80
2023-03-14T10:29:19.815Z,86.24
2023-03-14T10:31:54.821Z,85.92
2023-03-14T10:34:27.673Z,84.60
2023-03-14T10:36:58.900Z,84.53
2023-03-14T10:39:31.202Z,85.00
2023-03-14T10:42:07.161Z,84.65
2023-03-14T10:44:36.706Z,82.69
2023-03-14T10:47:06.630Z,82.17
2023-03-14T10:49:38.034Z,79.89
2023-03-14T10:52:20.757Z,79.67
2023-03-14T10:54:50.534Z,79.65
2023-03-14T10:57:21.499Z,78.53
2023-03-14T10:59:49.762Z,78.87
2023-03-14T11:02:33.323Z,79.27
2023-03-14T11:05:10.121Z,78.01
2023-03-14T11:07:41.749Z,78.06
2023-03-14T11:10:20.940Z,78.10
2023-03-14T11:13:07.724Z,76.47
2023-03-14T11:15:38.778Z,76.12
2023-03-14T11:18:33.301Z,74.85
2023-03-14T11:21:10.046Z,75.46
2023-03-14T11:23:48.827Z,74.80
2023-03-14T11:26:28.436Z,74.92
2023-03-14T11:29:00.200Z,74.39
2023-03-14T11:31:29.801Z,73.49
2023-03-14T11:34:07.681Z,72.99
2023-03-14T11:36:40.964Z,73.23
2023-03-14T11:39:15.719Z,73.95
2023-03-14T11:41:47.430Z,73.79
2023-03-14T11:44:21.240Z,73.78
2023-03-14T11:46:54.047Z,73.76
2023-03-14T11:49:32.307Z,72.46
2023-03-14T11:52:03.932Z,71.79
2023-03-14T11:54:43.834Z,71.45
2023-03-14T11:57:16.182Z,70.57
2023-03-14T11:59:52.377Z,72.40
2023-03-14T12:02:28.583Z,72.80
2023-03-14T12:05:26.081Z,72.47
2023-03-14T12:08:20.735Z,71.45
2023-03-14T12:10:53.636Z,70.82
2023-03-14T12:13:22.081Z,69.54
2023-03-14T12:15:55.911Z,69.11
2023-03-14T12:18:30.032Z,68.62
2023-03-14T12:21:00.698Z,68.76
2023-03-14T12:23:30.065Z,69.19
2023-03-14T12:26:18.105Z,72.22
2023-03-14T12:28:51.248Z,74.00
2023-03-14T12:31:38.755Z,75.66
2023-03-14T12:34:33.349Z,75.60
2023-03-14T12:37:08.309Z,75.74
2023-03-14T12:39:45.194Z,75.51
2023-03-14T12:42:17.282Z,75.22
2023-03-14T12:44:48.301Z,74.66
2023-03-14T12:47:52.690Z,73.53
2023-03-14T12:50:26.560Z,72.97
2023-03-14T12:53:39.955Z,70.87
2023-03-14T12:56:14.392Z,69.06
2023-03-14T12:58:49.861Z,68.98
2023-03-14T13:01:19.918Z,69.17
2023-03-14T13:03:51.815Z,69.55
2023-03-14T13:07:01.092Z,69.55
2023-03-14T13:09:53.964Z,69.79
2023-03-14T13:12:25.876Z,68.90
2023-03-14T13:14:55.819Z,68.89
2023-03-14T13:17:36.248Z,66.62
2023-03-14T13:20:11.996Z,66.39
2023-03-14T13:22:39.782Z,66.80
2023-03-14T13:25:11.564Z,68.34
2023-03-14T13:27:39.955Z,66.17
2023-03-14T13:30:17.848Z,66.57
2023-03-14T13:32:48.612Z,66.45
2023-03-14T13:35:18.542Z,65.09
2023-03-14T13:37:46.440Z,64.58
2023-03-14T13:40:28.214Z,65.65
2023-03-14T13:43:08.262Z,62.69
2023-03-14T13:45:47.581Z,61.93
2023-03-14T13:48:17.429Z,60.16
2023-03-14T13:50:53.912Z,61.03
2023-03-14T13:53:23.731Z,61.77
2023-03-14T13:55:52.173Z,58.75
2023-03-14T13:58:26.588Z,58.74
2023-03-14T14:01:02.189Z,55.09
2023-03-14T14:03:32.242Z,52.10
2023-03-14T14:06:00.425Z,48.84
2023-03-14T14:08:28.920Z,48.52
2023-03-14T14:11:02.075Z,48.81
2023-03-14T14:13:35.862Z,48.79
2023-03-14T14:16:06.162Z,48.57
2023-03-14T14:18:35.662Z,50.61
2023-03-14T14:21:04.819Z,50.58
2023-03-14T14:23:36.696Z,50.88
2023-03-14T14:26:09.169Z,45.76
2023-03-14T14:28:39.345Z,44.26
2023-03-14T14:31:22.513Z,45.76
2023-03-14T14:33:57.034Z,45.02
2023-03-14T14:36:27.903Z,45.79
2023-03-14T14:38:59.574Z,46.53
2023-03-14T14:41:32.939Z,45.53
2023-03-14T14:44:01.958Z,46.21
2023-03-14T14:46:34.136Z,44.64
2023-03-14T14:49:06.563Z,45.06
2023-03-14T14:51:35.977Z,44.78
2023-03-14T14:54:12.713Z,44.37
2023-03-14T14:56:41.052Z,44.41
2023-03-14T14:59:22.907Z,44.37
2023-03-14T15:01:52.621Z,44.27
2023-03-14T15:04:20.417Z,44.19
2023-03-14T15:06:51.035Z,43.23
2023-03-14T15:09:19.015Z,43.67
2023-03-14T15:11:46.915Z,42.51
2023-03-14T15:14:14.624Z,41.97
2023-03-14T15:16:44.959Z,42.99
2023-03-14T15:19:24.714Z,41.34
2023-03-14T15:21:53.468Z,41.65
2023-03-14T15:24:21.318Z,42.18
2023-03-14T15:26:49.056Z,41.98
2023-03-14T15:29:16.720Z,42.03
2023-03-14T15:31:46.003Z,42.13
2023-03-14T15:34:15.890Z,43.15
2023-03-14T15:36:43.667Z,42.70
2023-03-14T15:39:12.880Z,42.60
2023-03-14T15:41:40.710Z,42.97
2023-03-14T15:44:08.533Z,42.89
2023-03-14T15:46:36.512Z,43.05
2023-03-14T15:49:04.528Z,43.74
2023-03-14T15:51:34.229Z,43.43
2023-03-14T15:54:01.860Z,43.09
2023-03-14T15:56:31.919Z,43.59
2023-03-14T15:59:00.014Z,43.20
2023-03-14T16:01:27.827Z,42.78
2023-03-14T16:03:56.048Z,43.77
2023-03-14T16:06:23.730Z,44.01
2023-03-14T16:08:52.911Z,43.66
2023-03-14T16:11:22.762Z,42.54
2023-03-14T16:13:51.164Z,43.02
2023-03-14T16:16:19.182Z,43.43
2023-03-14T16:18:46.985Z,43.14
2023-03-14T16:21:16.599Z,43.71
2023-03-14T16:23:44.458Z,44.11
2023-03-14T16:26:15.640Z,44.47
2023-03-14T16:28:43.751Z,44.07
2023-03-14T16:31:13.348Z,43.99
2023-03-14T16:33:41.473Z,43.29
2023-03-14T16:36:12.191Z,44.03
2023-03-14T16:38:41.998Z,43.16
2023-03-14T16:41:14.034Z,44.03
2023-03-14T16:43:42.181Z,44.07
2023-03-14T16:46:14.021Z,44.13
2023-03-14T16:48:41.750Z,43.59
2023-03-14T16:51:09.681Z,44.56
2023-03-14T16:53:37.778Z,45.64
2023-03-14T16:56:05.800Z,43.87
2023-03-14T16:58:34.839Z,44.76
2023-03-14T17:01:10.560Z,44.28
2023-03-14T17:03:39.659Z,44.59
2023-03-14T17:06:08.462Z,43.96
2023-03-14T17:08:36.202Z,44.67
2023-03-14T17:11:03.973Z,44.61
2023-03-14T17:13:31.702Z,44.76
2023-03-14T17:16:02.470Z,44.96
2023-03-14T17:18:33.741Z,44.34
2023-03-14T17:21:02.611Z,45.35
2023-03-14T17:23:32.630Z,45.34
2023-03-14T17:26:00.679Z,45.36
2023-03-14T17:28:28.765Z,44.69
2023-03-14T17:31:05.338Z,45.41
2023-03-14T17:33:33.158Z,45.57
2023-03-14T17:36:01.050Z,46.13
2023-03-14T17:38:28.947Z,46.69
2023-03-14T17:40:56.711Z,46.63
2023-03-14T17:43:24.396Z,46.54
2023-03-14T17:45:58.533Z,47.35
2023-03-14T17:48:28.052Z,47.53
2023-03-14T17:50:58.052Z,47.38
2023-03-14T17:53:27.857Z,47.64
2023-03-14T17:55:55.551Z,48.60
2023-03-14T17:58:23.606Z,48.44
2023-03-14T18:00:51.383Z,48.88
2023-03-14T18:03:19.146Z,48.82
2023-03-14T18:05:48.416Z,48.91
2023-03-14T18:08:16.934Z,49.82
2023-03-14T18:10:44.691Z,49.70
2023-03-14T18:13:13.113Z,49.98
2023-03-14T18:15:40.922Z,50.11
2023-03-14T18:18:08.749Z,49.61
2023-03-14T18:20:36.573Z,50.04
2023-03-14T18:23:07.012Z,50.43
2023-03-14T18:25:34.732Z,50.29
2023-03-14T18:28:02.420Z,50.00
2023-03-14T18:30:30.126Z,50.10
2023-03-14T18:32:57.914Z,49.99
2023-03-14T18:35:25.704Z,49.69
2023-03-14T18:37:53.391Z,49.65
2023-03-14T18:40:22.521Z,49.67
2023-03-14T18:42:50.198Z,49.57
2023-03-14T18:45:29.555Z,48.81
2023-03-14T18:47:58.044Z,49.77
2023-03-14T18:50:25.724Z,49.66
2023-03-14T18:52:53.816Z,49.88
2023-03-14T18:55:22.943Z,49.68
2023-03-14T18:57:50.645Z,49.92
2023-03-14T19:00:20.312Z,49.91
2023-03-14T19:02:48.113Z,50.05
2023-03-14T19:05:16.109Z,50.31
2023-03-14T19:07:43.816Z,50.79
2023-03-14T19:10:12.650Z,51.09
2023-03-14T19:12:41.787Z,50.93
2023-03-14T19:15:11.882Z,50.85
2023-03-14T19:17:39.636Z,50.36
2023-03-14T19:20:08.804Z,50.03
2023-03-14T19:22:36.574Z,50.23
2023-03-14T19:25:06.208Z,49.99
2023-03-14T19:27:34.390Z,50.01
2023-03-14T19:30:03.629Z,49.91
2023-03-14T19:32:31.356Z,50.19
2023-03-14T19:34:59.119Z,50.74
2023-03-14T19:37:26.942Z,50.92
2023-03-14T19:39:54.639Z,50.73
2023-03-14T19:42:22.439Z,51.10
2023-03-14T19:44:50.155Z,51.66
2023-03-14T19:47:19.269Z,51.35
2023-03-14T19:49:46.998Z,51.95
2023-03-14T19:52:14.885Z,52.53
2023-03-14T19:54:43.012Z,52.58
2023-03-14T19:57:10.707Z,52.84
2023-03-14T19:59:38.427Z,53.04
2023-03-14T20:02:06.335Z,53.20
2023-03-14T20:04:36.008Z,53.12
2023-03-14T20:07:04.877Z,54.11
2023-03-14T20:09:32.957Z,53.62
2023-03-14T20:12:01.356Z,53.77
2023-03-14T20:14:29.112Z,54.08
2023-03-14T20:16:56.903Z,54.11
2023-03-14T20:19:24.679Z,54.41
2023-03-14T20:21:53.719Z,54.25
2023-03-14T20:24:21.789Z,54.33
2023-03-14T20:26:49.649Z,54.09
2023-03-14T20:29:17.371Z,54.35
2023-03-14T20:31:45.131Z,54.54
2023-03-14T20:34:12.851Z,54.56
2023-03-14T20:36:40.517Z,54.86
2023-03-14T20:39:10.364Z,55.09
2023-03-14T20:41:41.925Z,54.92
2023-03-14T20:44:11.300Z,55.52
2023-03-14T20:46:43.349Z,55.43
2023-03-14T20:49:11.405Z,56.18
2023-03-14T20:51:39.176Z,56.36
2023-03-14T20:54:08.895Z,56.51
2023-03-14T20:56:38.282Z,56.36
2023-03-14T20:59:06.106Z,56.53
2023-03-14T21:01:33.895Z,56.93
2023-03-14T21:04:01.642Z,57.45
2023-03-14T21:06:29.451Z,57.34
2023-03-14T21:08:57.132Z,57.67
2023-03-14T21:11:24.912Z,57.71
2023-03-14T21:13:53.944Z,57.88
2023-03-14T21:16:21.806Z,57.92
2023-03-14T21:18:49.563Z,58.45
2023-03-14T21:21:17.246Z,58.44
2023-03-14T21:23:44.989Z,58.81
2023-03-14T21:26:12.681Z,58.71
2023-03-14T21:28:40.367Z,58.81
2023-03-14T21:31:11.797Z,58.89
2023-03-14T21:33:40.403Z,58.66
2023-03-14T21:36:08.919Z,59.01
2023-03-14T21:38:36.682Z,59.17
2023-03-14T21:41:06.765Z,59.32
2023-03-14T21:43:35.038Z,58.99
2023-03-14T21:46:02.960Z,59.22
2023-03-14T21:48:32.151Z,59.15
2023-03-14T21:50:59.831Z,59.23
2023-03-14T21:53:30.080Z,59.66
2023-03-14T21:55:58.704Z,59.55
2023-03-14T21:58:26.904Z,59.12
2023-03-14T22:00:55.336Z,58.66
2023-03-14T22:03:23.819Z,58.59
2023-03-14T22:05:53.235Z,58.51
2023-03-14T22:08:22.530Z,58.11
2023-03-14T22:10:52.717Z,57.96
2023-03-14T22:13:24.745Z,57.44
2023-03-14T22:15:52.597Z,57.93
2023-03-14T22:18:23.479Z,57.93
2023-03-14T22:20:52.564Z,58.06
2023-03-14T22:23:20.317Z,57.78
2023-03-14T22:25:49.562Z,57.47
2023-03-14T22:28:18.600Z,57.75
2023-03-14T22:30:47.916Z,57.65
2023-03-14T22:33:15.659Z,57.79
2023-03-14T22:35:43.445Z,57.53
2023-03-14T22:38:12.606Z,57.35
2023-03-14T22:40:40.306Z,57.16
2023-03-14T22:43:07.970Z,57.51
2023-03-14T22:45:35.666Z,57.45
2023-03-14T22:48:03.412Z,57.23
2023-03-14T22:50:31.153Z,57.36
2023-03-14T22:52:59.294Z,57.29
2023-03-14T22:55:28.393Z,57.06
2023-03-14T22:57:57.651Z,57.42
2023-03-14T23:00:26.920Z,57.40
2023-03-14T23:02:54.982Z,57.55
2023-03-14T23:05:23.066Z,57.87
2023-03-14T23:07:50.788Z,57.90
2023-03-14T23:10:18.659Z,57.72
2023-03-14T23:12:47.797Z,57.82
2023-03-14T23:15:16.705Z,58.23
2023-03-14T23:17:45.272Z,58.53
2023-03-14T23:20:14.136Z,58.85
2023-03-14T23:22:41.791Z,58.95
2023-03-14T23:25:10.925Z,59.36
2023-03-14T23:27:38.765Z,60.15
2023-03-14T23:30:09.277Z,61.35
2023-03-14T23:32:36.973Z,61.74
2023-03-14T23:35:04.930Z,61.85
2023-03-14T23:37:33.677Z,62.10
2023-03-14T23:40:01.420Z,62.69
2023-03-14T23:42:29.076Z,62.75
2023-03-14T23:44:56.706Z,63.52
2023-03-14T23:47:26.145Z,62.95
2023-03-14T23:49:53.798Z,63.62
2023-03-14T23:52:21.479Z,63.88
2023-03-14T23:54:49.245Z,63.33
2023-03-14T23:57:17.053Z,63.30
2023-03-14T23:59:45.175Z,63.25
